PWSweather.com
Personal Weather Stations
Station Observations
KTXDECATUR
Wildwood, Decatur, TX 76234

WildwoodDecatur, TX 76234

Lat: 33.2634, Lon: -97.6651

Elevation: 800

Station Type: Davis Vantage Pro 2

http://weather.wildwoodnaturist.com

Latest ConditionsUpdated 6:20:05 PM CST Sunday, Nov 19, 2017
Currently Today's Max Today's Min Today's Average
Temperature 50.2°F10.1°C 62.8°F17.1°C 30.2°F-1.0°C 45.1°F7.3°C
Dew Point 32.2°F0.1°C 41.4°F5.2°C 28.4°F-2.0°C 32.6°F0.3°C
Winds Calm Calm 8.1 mph NW13.0 kmh NW - 1.1 mph 1.8 kmh
Wind Gusts -- 9.2 mph14.8 kmh - -
Humidity 50% 94% 31% 68%
Pressure 30.22 in1023.4 mb 30.40 in1029.5 mb 30.20 in1022.7 mb -
Hour Temp Dew Point Humidity Winds Wind Gusts Pressure Precip Precip Rate Daily Precip Total
06:20 PM 50.2°F10.1°C 32.2°F0.1°C 50% Calm Calm -- 30.22 in1023.4 mb - 0.00 in0.0 mm 0.00 in0.0 mm
06:15 PM 50.8°F10.4°C 32.3°F0.2°C 49% Calm Calm -- 30.22 in1023.4 mb - 0.00 in0.0 mm 0.00 in0.0 mm
06:10 PM 51.5°F10.8°C 32.4°F0.2°C 48% Calm Calm -- 30.21 in1023.0 mb - 0.00 in0.0 mm 0.00 in0.0 mm
06:00 PM 52.5°F11.4°C 32.3°F0.2°C 46% Calm Calm -- 30.21 in1023.0 mb - 0.00 in0.0 mm 0.00 in0.0 mm
05:50 PM 53.8°F12.1°C 31.8°F-0.1°C 43% Calm Calm -- 30.21 in1023.0 mb - 0.00 in0.0 mm 0.00 in0.0 mm
05:45 PM 54.4°F12.4°C 32.4°F0.2°C 43% Calm Calm -- 30.21 in1023.0 mb - 0.00 in0.0 mm 0.00 in0.0 mm
05:40 PM 55.2°F12.9°C 31.9°F-0.1°C 41% Calm Calm -- 30.20 in1022.7 mb - 0.00 in0.0 mm 0.00 in0.0 mm
05:30 PM 56.6°F13.7°C 32.6°F0.3°C 40% Calm Calm -- 30.20 in1022.7 mb - 0.00 in0.0 mm 0.00 in0.0 mm
05:20 PM 57.8°F14.3°C 32.4°F0.2°C 38% Calm Calm -- 30.20 in1022.7 mb - 0.00 in0.0 mm 0.00 in0.0 mm
05:15 PM 58.4°F14.7°C 32.9°F0.5°C 38% Calm Calm -- 30.20 in1022.7 mb - 0.00 in0.0 mm 0.00 in0.0 mm
05:10 PM 58.8°F14.9°C 31.9°F-0.1°C 36% Calm Calm -- 30.21 in1023.0 mb - 0.00 in0.0 mm 0.00 in0.0 mm
05:00 PM 59.0°F15.0°C 30.6°F-0.8°C 34% Calm Calm -- 30.21 in1023.0 mb - 0.00 in0.0 mm 0.00 in0.0 mm
04:50 PM 59.8°F15.4°C 31.3°F-0.4°C 34% Calm Calm -- 30.21 in1023.0 mb - 0.00 in0.0 mm 0.00 in0.0 mm
04:45 PM 60.3°F15.7°C 31.7°F-0.2°C 34% 3.5 mph NE5.6 kmh NE 4.6 mph7.4 kmh 30.21 in1023.0 mb - 0.00 in0.0 mm 0.00 in0.0 mm
04:40 PM 60.6°F15.9°C 31.3°F-0.4°C 33% 2.3 mph NE3.7 kmh NE 3.5 mph5.6 kmh 30.21 in1023.0 mb - 0.00 in0.0 mm 0.00 in0.0 mm
04:30 PM 61.1°F16.2°C 31.0°F-0.6°C 32% 1.2 mph W1.9 kmh W 2.3 mph3.7 kmh 30.22 in1023.4 mb - 0.00 in0.0 mm 0.00 in0.0 mm
04:20 PM 61.9°F16.6°C 31.7°F-0.2°C 32% Calm Calm 1.2 mph1.9 kmh 30.22 in1023.4 mb - 0.00 in0.0 mm 0.00 in0.0 mm
04:15 PM 62.2°F16.8°C 32.0°F0.0°C 32% Calm Calm -- 30.22 in1023.4 mb - 0.00 in0.0 mm 0.00 in0.0 mm
04:10 PM 62.6°F17.0°C 31.5°F-0.3°C 31% 2.3 mph SW3.7 kmh SW 3.5 mph5.6 kmh 30.22 in1023.4 mb - 0.00 in0.0 mm 0.00 in0.0 mm
04:00 PM 62.6°F17.0°C 32.3°F0.2°C 32% Calm Calm 2.3 mph3.7 kmh 30.22 in1023.4 mb - 0.00 in0.0 mm 0.00 in0.0 mm
03:50 PM 62.6°F17.0°C 31.5°F-0.3°C 31% 1.2 mph WSW1.9 kmh WSW 2.3 mph3.7 kmh 30.23 in1023.7 mb - 0.00 in0.0 mm 0.00 in0.0 mm
03:45 PM 62.6°F17.0°C 32.3°F0.2°C 32% 3.5 mph WSW5.6 kmh WSW 5.8 mph9.3 kmh 30.23 in1023.7 mb - 0.00 in0.0 mm 0.00 in0.0 mm
03:40 PM 62.8°F17.1°C 32.5°F0.3°C 32% 3.5 mph SW5.6 kmh SW 5.8 mph9.3 kmh 30.23 in1023.7 mb - 0.00 in0.0 mm 0.00 in0.0 mm
03:30 PM 62.3°F16.8°C 32.8°F0.4°C 33% 5.8 mph SW9.3 kmh SW 6.9 mph11.1 kmh 30.23 in1023.7 mb - 0.00 in0.0 mm 0.00 in0.0 mm
03:20 PM 61.7°F16.5°C 33.0°F0.6°C 34% 5.8 mph SW9.3 kmh SW 6.9 mph11.1 kmh 30.23 in1023.7 mb - 0.00 in0.0 mm 0.00 in0.0 mm
03:15 PM 61.4°F16.3°C 32.8°F0.4°C 34% 2.3 mph WSW3.7 kmh WSW 2.3 mph3.7 kmh 30.24 in1024.0 mb - 0.00 in0.0 mm 0.00 in0.0 mm
03:10 PM 61.2°F16.2°C 32.6°F0.3°C 34% 5.8 mph W9.3 kmh W 6.9 mph11.1 kmh 30.24 in1024.0 mb - 0.00 in0.0 mm 0.00 in0.0 mm
03:00 PM 60.9°F16.1°C 32.3°F0.2°C 34% 2.3 mph N3.7 kmh N 4.6 mph7.4 kmh 30.24 in1024.0 mb - 0.00 in0.0 mm 0.00 in0.0 mm
02:50 PM 61.8°F16.6°C 33.1°F0.6°C 34% 5.8 mph SW9.3 kmh SW 8.1 mph13.0 kmh 30.24 in1024.0 mb - 0.00 in0.0 mm 0.00 in0.0 mm
02:45 PM 61.5°F16.4°C 32.9°F0.5°C 34% 6.9 mph SW11.1 kmh SW 8.1 mph13.0 kmh 30.24 in1024.0 mb - 0.00 in0.0 mm 0.00 in0.0 mm
02:40 PM 61.8°F16.6°C 32.4°F0.2°C 33% 2.3 mph WSW3.7 kmh WSW 2.3 mph3.7 kmh 30.24 in1024.0 mb - 0.00 in0.0 mm 0.00 in0.0 mm
02:30 PM 62.1°F16.7°C 32.6°F0.3°C 33% 3.5 mph SSW5.6 kmh SSW 5.8 mph9.3 kmh 30.24 in1024.0 mb - 0.00 in0.0 mm 0.00 in0.0 mm
02:20 PM 61.2°F16.2°C 33.3°F0.7°C 35% 1.2 mph SW1.9 kmh SW 2.3 mph3.7 kmh 30.25 in1024.4 mb - 0.00 in0.0 mm 0.00 in0.0 mm
02:15 PM 61.1°F16.2°C 33.2°F0.7°C 35% 2.3 mph SW3.7 kmh SW 1.2 mph1.9 kmh 30.25 in1024.4 mb - 0.00 in0.0 mm 0.00 in0.0 mm
02:10 PM 61.1°F16.2°C 32.5°F0.3°C 34% 1.2 mph WSW1.9 kmh WSW 5.8 mph9.3 kmh 30.25 in1024.4 mb - 0.00 in0.0 mm 0.00 in0.0 mm
02:00 PM 61.3°F16.3°C 32.7°F0.4°C 34% 5.8 mph SW9.3 kmh SW 9.2 mph14.8 kmh 30.26 in1024.7 mb - 0.00 in0.0 mm 0.00 in0.0 mm
01:50 PM 61.4°F16.3°C 34.2°F1.2°C 36% 6.9 mph SW11.1 kmh SW 8.1 mph13.0 kmh 30.26 in1024.7 mb - 0.00 in0.0 mm 0.00 in0.0 mm
01:45 PM 60.8°F16.0°C 33.7°F0.9°C 36% 3.5 mph W5.6 kmh W 6.9 mph11.1 kmh 30.27 in1025.1 mb - 0.00 in0.0 mm 0.00 in0.0 mm
01:40 PM 61.0°F16.1°C 33.8°F1.0°C 36% 8.1 mph NW13.0 kmh NW 8.1 mph13.0 kmh 30.27 in1025.1 mb - 0.00 in0.0 mm 0.00 in0.0 mm
01:30 PM 60.4°F15.8°C 34.0°F1.1°C 37% Calm Calm -- 30.27 in1025.1 mb - 0.00 in0.0 mm 0.00 in0.0 mm
01:20 PM 60.2°F15.7°C 33.8°F1.0°C 37% 4.6 mph WNW7.4 kmh WNW 4.6 mph7.4 kmh 30.28 in1025.4 mb - 0.00 in0.0 mm 0.00 in0.0 mm
01:15 PM 60.3°F15.7°C 33.2°F0.7°C 36% 1.2 mph WSW1.9 kmh WSW 5.8 mph9.3 kmh 30.28 in1025.4 mb - 0.00 in0.0 mm 0.00 in0.0 mm
01:10 PM 60.1°F15.6°C 34.4°F1.3°C 38% 4.6 mph SW7.4 kmh SW 5.8 mph9.3 kmh 30.29 in1025.7 mb - 0.00 in0.0 mm 0.00 in0.0 mm
01:00 PM 59.3°F15.2°C 33.7°F0.9°C 38% 1.2 mph SW1.9 kmh SW 2.3 mph3.7 kmh 30.29 in1025.7 mb - 0.00 in0.0 mm 0.00 in0.0 mm
12:50 PM 60.0°F15.6°C 34.3°F1.3°C 38% 1.2 mph SSE1.9 kmh SSE 3.5 mph5.6 kmh 30.30 in1026.1 mb - 0.00 in0.0 mm 0.00 in0.0 mm
12:45 PM 59.8°F15.4°C 33.5°F0.8°C 37% 2.3 mph SSE3.7 kmh SSE 3.5 mph5.6 kmh 30.30 in1026.1 mb - 0.00 in0.0 mm 0.00 in0.0 mm
12:40 PM 59.6°F15.3°C 34.0°F1.1°C 38% 2.3 mph WSW3.7 kmh WSW 4.6 mph7.4 kmh 30.30 in1026.1 mb - 0.00 in0.0 mm 0.00 in0.0 mm
12:30 PM 59.1°F15.1°C 33.5°F0.8°C 38% 4.6 mph SW7.4 kmh SW 5.8 mph9.3 kmh 30.31 in1026.4 mb - 0.00 in0.0 mm 0.00 in0.0 mm
12:20 PM 58.3°F14.6°C 34.0°F1.1°C 40% Calm Calm 1.2 mph1.9 kmh 30.32 in1026.8 mb - 0.00 in0.0 mm 0.00 in0.0 mm
12:15 PM 58.4°F14.7°C 34.1°F1.2°C 40% Calm Calm -- 30.32 in1026.8 mb - 0.00 in0.0 mm 0.00 in0.0 mm
12:10 PM 58.7°F14.8°C 33.2°F0.7°C 38% 3.5 mph WSW5.6 kmh WSW 4.6 mph7.4 kmh 30.33 in1027.1 mb - 0.00 in0.0 mm 0.00 in0.0 mm
12:00 PM 59.0°F15.0°C 34.1°F1.2°C 39% 4.6 mph W7.4 kmh W 5.8 mph9.3 kmh 30.33 in1027.1 mb - 0.00 in0.0 mm 0.00 in0.0 mm
11:50 AM 58.5°F14.7°C 34.2°F1.2°C 40% Calm Calm 4.6 mph7.4 kmh 30.34 in1027.4 mb - 0.00 in0.0 mm 0.00 in0.0 mm
11:45 AM 58.1°F14.5°C 33.9°F1.1°C 40% 1.2 mph SSE1.9 kmh SSE 2.3 mph3.7 kmh 30.34 in1027.4 mb - 0.00 in0.0 mm 0.00 in0.0 mm
11:40 AM 57.8°F14.3°C 33.6°F0.9°C 40% 3.5 mph SSE5.6 kmh SSE 3.5 mph5.6 kmh 30.34 in1027.4 mb - 0.00 in0.0 mm 0.00 in0.0 mm
11:30 AM 57.5°F14.2°C 34.6°F1.4°C 42% 4.6 mph SSW7.4 kmh SSW 4.6 mph7.4 kmh 30.35 in1027.8 mb - 0.00 in0.0 mm 0.00 in0.0 mm
11:20 AM 56.4°F13.6°C 35.8°F2.1°C 46% 1.2 mph SW1.9 kmh SW 2.3 mph3.7 kmh 30.36 in1028.1 mb - 0.00 in0.0 mm 0.00 in0.0 mm
11:15 AM 55.9°F13.3°C 34.9°F1.6°C 45% 1.2 mph S1.9 kmh S 1.2 mph1.9 kmh 30.36 in1028.1 mb - 0.00 in0.0 mm 0.00 in0.0 mm
11:10 AM 55.7°F13.2°C 35.2°F1.8°C 46% 3.5 mph SW5.6 kmh SW 5.8 mph9.3 kmh 30.36 in1028.1 mb - 0.00 in0.0 mm 0.00 in0.0 mm
11:00 AM 55.4°F13.0°C 37.0°F2.8°C 50% 3.5 mph WNW5.6 kmh WNW 3.5 mph5.6 kmh 30.36 in1028.1 mb - 0.00 in0.0 mm 0.00 in0.0 mm
10:50 AM 55.0°F12.8°C 38.6°F3.7°C 54% Calm Calm 2.3 mph3.7 kmh 30.37 in1028.4 mb - 0.00 in0.0 mm 0.00 in0.0 mm
10:45 AM 54.5°F12.5°C 40.4°F4.7°C 59% 1.2 mph NW1.9 kmh NW 2.3 mph3.7 kmh 30.37 in1028.4 mb - 0.00 in0.0 mm 0.00 in0.0 mm
10:40 AM 53.5°F11.9°C 40.4°F4.7°C 61% Calm Calm -- 30.38 in1028.8 mb - 0.00 in0.0 mm 0.00 in0.0 mm
10:30 AM 52.0°F11.1°C 40.6°F4.8°C 65% 1.2 mph NW1.9 kmh NW 2.3 mph3.7 kmh 30.38 in1028.8 mb - 0.00 in0.0 mm 0.00 in0.0 mm
10:20 AM 50.4°F10.2°C 41.4°F5.2°C 71% Calm Calm -- 30.38 in1028.8 mb - 0.00 in0.0 mm 0.00 in0.0 mm
10:15 AM 49.1°F9.5°C 40.8°F4.9°C 73% Calm Calm -- 30.39 in1029.1 mb - 0.00 in0.0 mm 0.00 in0.0 mm
10:10 AM 47.9°F8.8°C 39.7°F4.3°C 73% 1.2 mph NW1.9 kmh NW 3.5 mph5.6 kmh 30.39 in1029.1 mb - 0.00 in0.0 mm 0.00 in0.0 mm
10:00 AM 46.5°F8.1°C 39.0°F3.9°C 75% 2.3 mph NW3.7 kmh NW 3.5 mph5.6 kmh 30.39 in1029.1 mb - 0.00 in0.0 mm 0.00 in0.0 mm
09:50 AM 45.4°F7.4°C 39.0°F3.9°C 78% Calm Calm 4.6 mph7.4 kmh 30.40 in1029.5 mb - 0.00 in0.0 mm 0.00 in0.0 mm
09:45 AM 44.8°F7.1°C 38.6°F3.7°C 79% 1.2 mph NW1.9 kmh NW 3.5 mph5.6 kmh 30.40 in1029.5 mb - 0.00 in0.0 mm 0.00 in0.0 mm
09:40 AM 44.1°F6.7°C 38.6°F3.7°C 81% 3.5 mph NW5.6 kmh NW 4.6 mph7.4 kmh 30.40 in1029.5 mb - 0.00 in0.0 mm 0.00 in0.0 mm
09:30 AM 42.7°F5.9°C 37.9°F3.3°C 83% Calm Calm -- 30.40 in1029.5 mb - 0.00 in0.0 mm 0.00 in0.0 mm
09:20 AM 41.7°F5.4°C 37.8°F3.2°C 86% 2.3 mph NW3.7 kmh NW 2.3 mph3.7 kmh 30.40 in1029.5 mb - 0.00 in0.0 mm 0.00 in0.0 mm
09:15 AM 41.1°F5.1°C 37.2°F2.9°C 86% 3.5 mph NW5.6 kmh NW 4.6 mph7.4 kmh 30.40 in1029.5 mb - 0.00 in0.0 mm 0.00 in0.0 mm
09:10 AM 40.5°F4.7°C 37.0°F2.8°C 87% 2.3 mph NW3.7 kmh NW 3.5 mph5.6 kmh 30.40 in1029.5 mb - 0.00 in0.0 mm 0.00 in0.0 mm
09:00 AM 40.1°F4.5°C 37.6°F3.1°C 91% Calm Calm -- 30.40 in1029.5 mb - 0.00 in0.0 mm 0.00 in0.0 mm
08:50 AM 38.7°F3.7°C 36.6°F2.6°C 92% Calm Calm -- 30.40 in1029.5 mb - 0.00 in0.0 mm 0.00 in0.0 mm
08:45 AM 38.4°F3.6°C 36.2°F2.3°C 92% 1.2 mph NNW1.9 kmh NNW 1.2 mph1.9 kmh 30.40 in1029.5 mb - 0.00 in0.0 mm 0.00 in0.0 mm
08:40 AM 38.0°F3.3°C 36.2°F2.3°C 93% 1.2 mph NNW1.9 kmh NNW 2.3 mph3.7 kmh 30.40 in1029.5 mb - 0.00 in0.0 mm 0.00 in0.0 mm
08:30 AM 37.0°F2.8°C 35.4°F1.9°C 94% Calm Calm -- 30.39 in1029.1 mb - 0.00 in0.0 mm 0.00 in0.0 mm
08:20 AM 36.1°F2.3°C 34.5°F1.4°C 94% Calm Calm -- 30.39 in1029.1 mb - 0.00 in0.0 mm 0.00 in0.0 mm
08:15 AM 35.8°F2.1°C 34.3°F1.3°C 94% Calm Calm -- 30.39 in1029.1 mb - 0.00 in0.0 mm 0.00 in0.0 mm
08:10 AM 35.4°F1.9°C 33.9°F1.1°C 94% Calm Calm -- 30.39 in1029.1 mb - 0.00 in0.0 mm 0.00 in0.0 mm
08:00 AM 34.4°F1.3°C 32.9°F0.5°C 94% Calm Calm -- 30.38 in1028.8 mb - 0.00 in0.0 mm 0.00 in0.0 mm
07:50 AM 33.4°F0.8°C 31.9°F-0.1°C 94% Calm Calm -- 30.38 in1028.8 mb - 0.00 in0.0 mm 0.00 in0.0 mm
07:45 AM 33.2°F0.7°C 31.7°F-0.2°C 94% Calm Calm -- 30.38 in1028.8 mb - 0.00 in0.0 mm 0.00 in0.0 mm
07:40 AM 32.5°F0.3°C 30.9°F-0.6°C 94% Calm Calm -- 30.37 in1028.4 mb - 0.00 in0.0 mm 0.00 in0.0 mm
07:30 AM 31.4°F-0.3°C 29.6°F-1.3°C 93% Calm Calm -- 30.37 in1028.4 mb - 0.00 in0.0 mm 0.00 in0.0 mm
07:20 AM 31.6°F-0.2°C 29.8°F-1.2°C 93% Calm Calm -- 30.37 in1028.4 mb - 0.00 in0.0 mm 0.00 in0.0 mm
07:15 AM 31.6°F-0.2°C 29.8°F-1.2°C 93% Calm Calm -- 30.36 in1028.1 mb - 0.00 in0.0 mm 0.00 in0.0 mm
07:10 AM 31.5°F-0.3°C 29.7°F-1.3°C 93% Calm Calm -- 30.37 in1028.4 mb - 0.00 in0.0 mm 0.00 in0.0 mm
07:00 AM 30.9°F-0.6°C 29.1°F-1.6°C 93% Calm Calm -- 30.36 in1028.1 mb - 0.00 in0.0 mm 0.00 in0.0 mm
06:50 AM 30.4°F-0.9°C 28.6°F-1.9°C 93% Calm Calm -- 30.35 in1027.8 mb - 0.00 in0.0 mm 0.00 in0.0 mm
06:45 AM 30.2°F-1.0°C 28.4°F-2.0°C 93% Calm Calm -- 30.35 in1027.8 mb - 0.00 in0.0 mm 0.00 in0.0 mm
06:40 AM 30.3°F-0.9°C 28.6°F-1.9°C 93% Calm Calm -- 30.35 in1027.8 mb - 0.00 in0.0 mm 0.00 in0.0 mm
06:30 AM 30.8°F-0.7°C 29.0°F-1.7°C 93% Calm Calm -- 30.34 in1027.4 mb - 0.00 in0.0 mm 0.00 in0.0 mm
06:20 AM 31.1°F-0.5°C 29.4°F-1.4°C 93% Calm Calm -- 30.34 in1027.4 mb - 0.00 in0.0 mm 0.00 in0.0 mm
06:15 AM 31.3°F-0.4°C 29.5°F-1.4°C 93% Calm Calm -- 30.34 in1027.4 mb - 0.00 in0.0 mm 0.00 in0.0 mm
06:10 AM 31.2°F-0.4°C 29.1°F-1.6°C 92% Calm Calm -- 30.33 in1027.1 mb - 0.00 in0.0 mm 0.00 in0.0 mm
06:00 AM 31.5°F-0.3°C 29.7°F-1.3°C 93% Calm Calm -- 30.33 in1027.1 mb - 0.00 in0.0 mm 0.00 in0.0 mm
05:50 AM 32.0°F0.0°C 30.2°F-1.0°C 93% Calm Calm -- 30.33 in1027.1 mb - 0.00 in0.0 mm 0.00 in0.0 mm
05:45 AM 31.9°F-0.1°C 30.1°F-1.1°C 93% Calm Calm -- 30.33 in1027.1 mb - 0.00 in0.0 mm 0.00 in0.0 mm
05:40 AM 31.9°F-0.1°C 30.1°F-1.1°C 93% Calm Calm -- 30.33 in1027.1 mb - 0.00 in0.0 mm 0.00 in0.0 mm
05:30 AM 32.0°F0.0°C 30.2°F-1.0°C 93% Calm Calm -- 30.32 in1026.8 mb - 0.00 in0.0 mm 0.00 in0.0 mm
05:20 AM 31.2°F-0.4°C 29.4°F-1.4°C 93% Calm Calm -- 30.33 in1027.1 mb - 0.00 in0.0 mm 0.00 in0.0 mm
05:15 AM 30.9°F-0.6°C 28.9°F-1.7°C 92% Calm Calm -- 30.33 in1027.1 mb - 0.00 in0.0 mm 0.00 in0.0 mm
05:10 AM 30.6°F-0.8°C 28.6°F-1.9°C 92% Calm Calm -- 30.33 in1027.1 mb - 0.00 in0.0 mm 0.00 in0.0 mm
05:00 AM 30.8°F-0.7°C 28.8°F-1.8°C 92% Calm Calm -- 30.32 in1026.8 mb - 0.00 in0.0 mm 0.00 in0.0 mm
04:50 AM 31.3°F-0.4°C 29.3°F-1.5°C 92% Calm Calm -- 30.32 in1026.8 mb - 0.00 in0.0 mm 0.00 in0.0 mm
04:45 AM 31.5°F-0.3°C 29.4°F-1.4°C 92% Calm Calm -- 30.32 in1026.8 mb - 0.00 in0.0 mm 0.00 in0.0 mm
04:40 AM 31.7°F-0.2°C 29.6°F-1.3°C 92% Calm Calm -- 30.32 in1026.8 mb - 0.00 in0.0 mm 0.00 in0.0 mm
04:30 AM 31.7°F-0.2°C 29.6°F-1.3°C 92% Calm Calm -- 30.31 in1026.4 mb - 0.00 in0.0 mm 0.00 in0.0 mm
04:20 AM 31.5°F-0.3°C 29.2°F-1.6°C 91% Calm Calm -- 30.31 in1026.4 mb - 0.00 in0.0 mm 0.00 in0.0 mm
04:15 AM 31.8°F-0.1°C 29.7°F-1.3°C 92% Calm Calm -- 30.32 in1026.8 mb - 0.00 in0.0 mm 0.00 in0.0 mm
04:10 AM 32.1°F0.1°C 30.0°F-1.1°C 92% Calm Calm -- 30.32 in1026.8 mb - 0.00 in0.0 mm 0.00 in0.0 mm
04:00 AM 32.3°F0.2°C 30.3°F-0.9°C 92% Calm Calm -- 30.31 in1026.4 mb - 0.00 in0.0 mm 0.00 in0.0 mm
03:50 AM 32.2°F0.1°C 29.9°F-1.2°C 91% Calm Calm -- 30.31 in1026.4 mb - 0.00 in0.0 mm 0.00 in0.0 mm
03:45 AM 32.1°F0.1°C 29.8°F-1.2°C 91% Calm Calm -- 30.31 in1026.4 mb - 0.00 in0.0 mm 0.00 in0.0 mm
03:40 AM 32.2°F0.1°C 29.9°F-1.2°C 91% Calm Calm -- 30.31 in1026.4 mb - 0.00 in0.0 mm 0.00 in0.0 mm
03:30 AM 32.5°F0.3°C 30.2°F-1.0°C 91% Calm Calm -- 30.31 in1026.4 mb - 0.00 in0.0 mm 0.00 in0.0 mm
03:20 AM 32.6°F0.3°C 30.3°F-0.9°C 91% Calm Calm -- 30.31 in1026.4 mb - 0.00 in0.0 mm 0.00 in0.0 mm
03:15 AM 32.4°F0.2°C 30.1°F-1.1°C 91% Calm Calm -- 30.31 in1026.4 mb - 0.00 in0.0 mm 0.00 in0.0 mm
03:10 AM 32.4°F0.2°C 30.1°F-1.1°C 91% Calm Calm -- 30.31 in1026.4 mb - 0.00 in0.0 mm 0.00 in0.0 mm
03:00 AM 32.4°F0.2°C 30.1°F-1.1°C 91% Calm Calm -- 30.31 in1026.4 mb - 0.00 in0.0 mm 0.00 in0.0 mm
02:50 AM 32.4°F0.2°C 30.1°F-1.1°C 91% Calm Calm -- 30.31 in1026.4 mb - 0.00 in0.0 mm 0.00 in0.0 mm
02:45 AM 32.6°F0.3°C 30.2°F-1.0°C 91% Calm Calm -- 30.31 in1026.4 mb - 0.00 in0.0 mm 0.00 in0.0 mm
02:40 AM 32.7°F0.4°C 30.4°F-0.9°C 91% Calm Calm -- 30.31 in1026.4 mb - 0.00 in0.0 mm 0.00 in0.0 mm
02:30 AM 32.8°F0.4°C 30.1°F-1.1°C 90% Calm Calm -- 30.31 in1026.4 mb - 0.00 in0.0 mm 0.00 in0.0 mm
02:20 AM 33.0°F0.6°C 30.4°F-0.9°C 90% Calm Calm -- 30.31 in1026.4 mb - 0.00 in0.0 mm 0.00 in0.0 mm
02:15 AM 33.1°F0.6°C 30.5°F-0.8°C 90% Calm Calm -- 30.31 in1026.4 mb - 0.00 in0.0 mm 0.00 in0.0 mm
02:10 AM 32.9°F0.5°C 30.3°F-0.9°C 90% Calm Calm -- 30.31 in1026.4 mb - 0.00 in0.0 mm 0.00 in0.0 mm
02:00 AM 32.9°F0.5°C 30.0°F-1.1°C 89% Calm Calm -- 30.31 in1026.4 mb - 0.00 in0.0 mm 0.00 in0.0 mm
01:50 AM 33.4°F0.8°C 30.8°F-0.7°C 90% Calm Calm -- 30.31 in1026.4 mb - 0.00 in0.0 mm 0.00 in0.0 mm
01:45 AM 33.5°F0.8°C 30.6°F-0.8°C 89% Calm Calm -- 30.31 in1026.4 mb - 0.00 in0.0 mm 0.00 in0.0 mm
01:40 AM 33.6°F0.9°C 30.7°F-0.7°C 89% Calm Calm -- 30.31 in1026.4 mb - 0.00 in0.0 mm 0.00 in0.0 mm
01:30 AM 34.0°F1.1°C 31.1°F-0.5°C 89% Calm Calm -- 30.30 in1026.1 mb - 0.00 in0.0 mm 0.00 in0.0 mm
01:20 AM 34.2°F1.2°C 31.3°F-0.4°C 89% Calm Calm -- 30.30 in1026.1 mb - 0.00 in0.0 mm 0.00 in0.0 mm
01:15 AM 34.2°F1.2°C 31.3°F-0.4°C 89% 1.2 mph NW1.9 kmh NW 1.2 mph1.9 kmh 30.30 in1026.1 mb - 0.00 in0.0 mm 0.00 in0.0 mm
01:10 AM 34.4°F1.3°C 31.5°F-0.3°C 89% 1.2 mph NW1.9 kmh NW 2.3 mph3.7 kmh 30.30 in1026.1 mb - 0.00 in0.0 mm 0.00 in0.0 mm
01:00 AM 34.5°F1.4°C 31.4°F-0.3°C 88% Calm Calm -- 30.30 in1026.1 mb - 0.00 in0.0 mm 0.00 in0.0 mm
12:50 AM 35.2°F1.8°C 32.0°F0.0°C 88% Calm Calm -- 30.30 in1026.1 mb - 0.00 in0.0 mm 0.00 in0.0 mm
12:45 AM 35.3°F1.8°C 32.1°F0.1°C 88% 2.3 mph NW3.7 kmh NW 3.5 mph5.6 kmh 30.30 in1026.1 mb - 0.00 in0.0 mm 0.00 in0.0 mm
12:40 AM 35.4°F1.9°C 32.2°F0.1°C 88% 1.2 mph NW1.9 kmh NW 2.3 mph3.7 kmh 30.30 in1026.1 mb - 0.00 in0.0 mm 0.00 in0.0 mm
12:30 AM 35.9°F2.2°C 32.7°F0.4°C 88% Calm Calm -- 30.30 in1026.1 mb - 0.00 in0.0 mm 0.00 in0.0 mm
12:20 AM 36.2°F2.3°C 32.7°F0.4°C 87% Calm Calm -- 30.30 in1026.1 mb - 0.00 in0.0 mm 0.00 in0.0 mm
12:15 AM 36.4°F2.4°C 32.9°F0.5°C 87% Calm Calm -- 30.30 in1026.1 mb - 0.00 in0.0 mm 0.00 in0.0 mm
12:10 AM 36.5°F2.5°C 33.0°F0.6°C 87% Calm Calm -- 30.30 in1026.1 mb - 0.00 in0.0 mm 0.00 in0.0 mm
12:00 AM 37.3°F2.9°C 33.8°F1.0°C 87% Calm Calm -- 30.29 in1025.7 mb - 0.00 in0.0 mm 0.00 in0.0 mm